Hebron, New Hampshire
Current Conditions -  °F | °C
As of 3:55 AM on Wednesday 22 Oct 2014 (Local Time) from K1P1 Reporting Station
Drizzle Drizzle  
Wind Chill: 47°   Ceiling: 1800
Heat Index: 47°   Visibility: 4mi
Dew Point: 47°   Wind: 0mph
Humidity: 100%   Direction: NA
Pressure: 30.07"   Gusts: NA
Location:  43.69°N, 71.81°W
Report Text: K1P1 220755Z AUTO 00000KT 4SM DZ SCT002 BKN018 OVC025 09/09 A3007 RMK AO2 T00850085
Loading
Personal Weather Stations






























Interactive Weather Map
Tropical Storm Tracking
New forecast layout! Learn more

10-Day Weather Forecast

Advertisements
Track Severe Weather on mobile